Terminal Aerodrome Forecast
Issued by NWS

Home | Current Version | Previous Version | Graphics & Text | Print | Product List | Glossary On
Versions: 1 2 3 4 5 6 7 8 9 10 11 12 13 14 15 16
076
FTUS43 KABR 221223 AAA
TAFMBG
TAF AMD
KMBG 221223Z 2212/2312 00000KT P6SM SCT004
      TEMPO 2212/2214 BKN004
     FM221700 31011KT P6SM FEW250
     FM222000 31017G25KT P6SM FEW250
     FM230200 34012KT P6SM FEW250=

USA.gov is the U.S. government's official web portal to all federal, state and local government web resources and services.